createdAt,value
2019-02-25T00:00:01.702Z,4.20
2019-02-25T00:02:33.309Z,4.20
2019-02-25T00:05:03.307Z,4.30
2019-02-25T00:07:33.345Z,4.40
2019-02-25T00:10:04.778Z,4.40
2019-02-25T00:12:34.962Z,4.50
2019-02-25T00:15:07.672Z,4.40
2019-02-25T00:17:40.072Z,4.40
2019-02-25T00:20:10.886Z,4.40
2019-02-25T00:22:40.875Z,4.50
2019-02-25T00:25:12.249Z,4.50
2019-02-25T00:27:42.166Z,4.40
2019-02-25T00:30:15.770Z,4.60
2019-02-25T00:32:45.726Z,4.70
2019-02-25T00:35:15.671Z,4.70
2019-02-25T00:37:45.664Z,4.70
2019-02-25T00:40:16.546Z,4.70
2019-02-25T00:42:46.491Z,4.70
2019-02-25T00:45:17.180Z,4.70
2019-02-25T00:47:47.116Z,4.70
2019-02-25T00:50:21.955Z,4.60
2019-02-25T00:52:51.879Z,4.50
2019-02-25T00:55:21.911Z,4.50
2019-02-25T00:57:51.950Z,4.50
2019-02-25T01:00:23.067Z,4.50
2019-02-25T01:02:53.287Z,4.60
2019-02-25T01:05:23.772Z,4.60
2019-02-25T01:07:53.721Z,4.70
2019-02-25T01:10:24.876Z,4.60
2019-02-25T01:12:54.847Z,4.60
2019-02-25T01:15:25.841Z,4.60
2019-02-25T01:17:55.800Z,4.60
2019-02-25T01:20:26.756Z,4.60
2019-02-25T01:22:56.725Z,4.50
2019-02-25T01:25:26.663Z,4.50
2019-02-25T01:27:56.703Z,4.60
2019-02-25T01:30:26.951Z,4.50
2019-02-25T01:32:56.927Z,4.50
2019-02-25T01:35:27.061Z,4.50
2019-02-25T01:37:57.010Z,4.60
2019-02-25T01:40:27.872Z,4.70
2019-02-25T01:42:57.896Z,4.70
2019-02-25T01:45:27.950Z,4.70
2019-02-25T01:47:57.965Z,4.70
2019-02-25T01:50:28.014Z,4.70
2019-02-25T01:52:59.209Z,4.70
2019-02-25T01:55:29.659Z,4.70
2019-02-25T01:57:59.651Z,4.60
2019-02-25T02:00:29.707Z,4.60
2019-02-25T02:02:59.696Z,4.50
2019-02-25T02:05:29.808Z,4.40
2019-02-25T02:08:00.147Z,4.50
2019-02-25T02:10:30.216Z,4.40
2019-02-25T02:13:00.171Z,4.40
2019-02-25T02:15:31.186Z,4.50
2019-02-25T02:18:01.222Z,4.50
2019-02-25T02:20:31.163Z,4.50
2019-02-25T02:23:01.106Z,4.40
2019-02-25T02:25:31.435Z,4.30
2019-02-25T02:28:01.443Z,4.30
2019-02-25T02:30:33.843Z,4.30
2019-02-25T02:33:04.145Z,4.30
2019-02-25T02:35:34.408Z,4.30
2019-02-25T02:38:04.534Z,4.30
2019-02-25T02:40:34.656Z,4.30
2019-02-25T02:43:04.676Z,4.20
2019-02-25T02:45:46.452Z,4.20
2019-02-25T02:48:22.201Z,4.20
2019-02-25T02:50:52.242Z,4.20
2019-02-25T02:53:22.264Z,4.20
2019-02-25T02:55:52.386Z,4.30
2019-02-25T02:58:22.398Z,4.40
2019-02-25T03:00:52.516Z,4.40
2019-02-25T03:03:22.423Z,4.40
2019-02-25T03:05:52.447Z,4.40
2019-02-25T03:08:22.718Z,4.40
2019-02-25T03:10:52.756Z,4.40
2019-02-25T03:13:22.756Z,4.40
2019-02-25T03:15:52.688Z,4.40
2019-02-25T03:18:22.639Z,4.30
2019-02-25T03:20:52.578Z,4.20
2019-02-25T03:23:22.852Z,4.20
2019-02-25T03:25:52.987Z,4.10
2019-02-25T03:28:23.068Z,4.00
2019-02-25T03:30:53.090Z,4.10
2019-02-25T03:33:23.265Z,4.10
2019-02-25T03:35:53.228Z,4.10
2019-02-25T03:38:24.144Z,4.10
2019-02-25T03:40:55.077Z,4.00
2019-02-25T03:43:25.083Z,4.00
2019-02-25T03:45:55.071Z,4.00
2019-02-25T03:48:25.404Z,4.00
2019-02-25T03:50:55.344Z,4.00
2019-02-25T03:53:25.333Z,4.10
2019-02-25T03:55:55.355Z,4.20
2019-02-25T03:58:25.781Z,4.20
2019-02-25T04:00:55.813Z,4.20
2019-02-25T04:03:25.862Z,4.20
2019-02-25T04:05:56.281Z,4.20
2019-02-25T04:08:26.399Z,4.20
2019-02-25T04:10:56.357Z,4.10
2019-02-25T04:13:26.371Z,4.10
2019-02-25T04:15:56.597Z,4.10
2019-02-25T04:18:26.606Z,4.10
2019-02-25T04:20:57.693Z,4.00
2019-02-25T04:23:27.630Z,4.00
2019-02-25T04:25:57.631Z,4.00
2019-02-25T04:28:27.694Z,4.10
2019-02-25T04:30:57.858Z,4.10
2019-02-25T04:33:27.864Z,4.10
2019-02-25T04:35:57.928Z,4.10
2019-02-25T04:38:28.144Z,4.10
2019-02-25T04:40:58.375Z,4.00
2019-02-25T04:43:29.522Z,4.10
2019-02-25T04:45:59.542Z,4.10
2019-02-25T04:48:29.558Z,4.10
2019-02-25T04:50:59.479Z,4.10
2019-02-25T04:53:29.560Z,4.00
2019-02-25T04:55:59.533Z,4.00
2019-02-25T04:58:29.498Z,4.00
2019-02-25T05:00:59.526Z,3.90
2019-02-25T05:03:29.503Z,3.90
2019-02-25T05:05:59.519Z,4.00
2019-02-25T05:08:29.588Z,4.00
2019-02-25T05:10:59.523Z,3.90
2019-02-25T05:13:29.517Z,3.90
2019-02-25T05:15:59.874Z,3.90
2019-02-25T05:18:29.926Z,3.80
2019-02-25T05:20:59.883Z,3.80
2019-02-25T05:23:30.180Z,3.80
2019-02-25T05:26:00.152Z,3.80
2019-02-25T05:28:30.214Z,3.80
2019-02-25T05:31:00.212Z,3.90
2019-02-25T05:33:30.177Z,3.90
2019-02-25T05:36:00.182Z,3.90
2019-02-25T05:38:30.273Z,4.00
2019-02-25T05:41:00.295Z,4.00
2019-02-25T05:43:31.222Z,4.00
2019-02-25T05:46:01.243Z,4.00
2019-02-25T05:48:31.199Z,4.00
2019-02-25T05:51:01.237Z,3.80
2019-02-25T05:53:31.176Z,4.10
2019-02-25T05:56:01.444Z,4.10
2019-02-25T05:58:31.516Z,4.20
2019-02-25T06:01:01.664Z,4.20
2019-02-25T06:03:31.631Z,4.20
2019-02-25T06:06:01.840Z,4.20
2019-02-25T06:08:31.870Z,4.20
2019-02-25T06:11:01.951Z,4.30
2019-02-25T06:13:31.964Z,4.50
2019-02-25T06:16:01.955Z,4.50
2019-02-25T06:18:32.072Z,4.50
2019-02-25T06:21:02.047Z,4.70
2019-02-25T06:23:32.062Z,4.70
2019-02-25T06:26:03.218Z,4.90
2019-02-25T06:28:33.160Z,4.80
2019-02-25T06:31:03.197Z,4.80
2019-02-25T06:33:33.339Z,4.60
2019-02-25T06:36:03.347Z,7.00
2019-02-25T06:38:33.458Z,4.70
2019-02-25T06:41:03.473Z,4.60
2019-02-25T06:43:34.383Z,4.60
2019-02-25T06:46:04.428Z,4.60
2019-02-25T06:48:34.444Z,4.60
2019-02-25T06:51:04.471Z,4.60
2019-02-25T06:53:34.459Z,4.60
2019-02-25T06:56:04.398Z,4.60
2019-02-25T06:58:34.574Z,4.60
2019-02-25T07:01:04.639Z,4.70
2019-02-25T07:03:34.770Z,4.70
2019-02-25T07:06:18.509Z,4.80
2019-02-25T07:09:02.469Z,5.00
2019-02-25T07:11:38.712Z,5.10
2019-02-25T07:14:22.398Z,5.20
2019-02-25T07:16:54.011Z,5.20
2019-02-25T07:19:25.670Z,5.20
2019-02-25T07:22:12.637Z,5.40
2019-02-25T07:24:56.734Z,5.40
2019-02-25T07:27:28.390Z,5.40
2019-02-25T07:30:00.038Z,5.50
2019-02-25T07:32:31.752Z,5.50
2019-02-25T07:35:03.416Z,5.60
2019-02-25T07:37:51.826Z,5.70
2019-02-25T07:40:40.243Z,5.90
2019-02-25T07:43:15.529Z,6.00
2019-02-25T07:46:03.516Z,5.90
2019-02-25T07:48:44.346Z,6.00
2019-02-25T07:51:15.997Z,6.00
2019-02-25T07:53:56.926Z,6.00
2019-02-25T07:56:43.937Z,6.10
2019-02-25T07:59:24.912Z,6.10
2019-02-25T08:02:05.199Z,6.10
2019-02-25T08:04:42.706Z,6.10
2019-02-25T08:07:23.355Z,6.30
2019-02-25T08:10:11.125Z,6.30
2019-02-25T08:12:55.026Z,6.40
2019-02-25T08:15:38.731Z,6.50
2019-02-25T08:18:25.526Z,6.60
2019-02-25T08:20:59.778Z,6.70
2019-02-25T08:23:31.546Z,6.90
2019-02-25T08:26:05.975Z,7.00
2019-02-25T08:28:49.873Z,6.90
2019-02-25T08:31:24.537Z,7.20
2019-02-25T08:33:58.867Z,7.60
2019-02-25T08:37:05.403Z,8.20
2019-02-25T08:39:46.248Z,8.50
2019-02-25T08:42:24.711Z,8.40
2019-02-25T08:45:08.874Z,8.40
2019-02-25T08:47:41.595Z,8.60
2019-02-25T08:50:13.971Z,8.40
2019-02-25T08:52:43.988Z,8.50
2019-02-25T08:55:13.897Z,8.60
2019-02-25T08:57:43.851Z,8.70
2019-02-25T09:00:15.077Z,8.60
2019-02-25T09:02:45.085Z,8.90
2019-02-25T09:05:15.236Z,8.90
2019-02-25T09:07:45.282Z,8.90
2019-02-25T09:10:15.323Z,8.80
2019-02-25T09:12:45.260Z,8.80
2019-02-25T09:15:15.615Z,9.00
2019-02-25T09:17:45.230Z,8.70
2019-02-25T09:20:16.170Z,8.60
2019-02-25T09:22:46.126Z,8.70
2019-02-25T09:25:16.443Z,8.80
2019-02-25T09:27:46.460Z,8.80
2019-02-25T09:30:20.288Z,9.40
2019-02-25T09:32:50.242Z,9.30
2019-02-25T09:35:20.467Z,9.40
2019-02-25T09:37:50.480Z,9.30
2019-02-25T09:40:20.409Z,9.60
2019-02-25T09:42:50.419Z,9.60
2019-02-25T09:45:20.634Z,9.50
2019-02-25T09:47:51.466Z,9.50
2019-02-25T09:50:22.714Z,9.70
2019-02-25T09:52:52.747Z,9.90
2019-02-25T09:55:23.700Z,10.40
2019-02-25T09:57:53.897Z,10.30
2019-02-25T10:00:23.925Z,10.30
2019-02-25T10:02:53.884Z,10.40
2019-02-25T10:05:24.110Z,10.10
2019-02-25T10:07:54.128Z,10.30
2019-02-25T10:10:24.187Z,11.10
2019-02-25T10:12:54.214Z,13.00
2019-02-25T10:15:28.624Z,13.00
2019-02-25T10:17:58.652Z,14.50
2019-02-25T10:20:28.666Z,14.70
2019-02-25T10:22:58.608Z,14.00
2019-02-25T10:25:28.680Z,13.00
2019-02-25T10:27:58.789Z,11.70
2019-02-25T10:30:28.850Z,11.50
2019-02-25T10:33:01.917Z,10.90
2019-02-25T10:35:31.861Z,10.90
2019-02-25T10:38:03.214Z,11.00
2019-02-25T10:40:33.264Z,11.20
2019-02-25T10:43:03.372Z,11.10
2019-02-25T10:45:35.229Z,11.20
2019-02-25T10:48:06.713Z,12.50
2019-02-25T10:50:38.667Z,12.90
2019-02-25T10:53:08.352Z,13.60
2019-02-25T10:55:49.328Z,15.20
2019-02-25T10:58:19.559Z,15.30
2019-02-25T11:00:49.583Z,17.20
2019-02-25T11:03:19.938Z,16.70
2019-02-25T11:05:51.791Z,17.20
2019-02-25T11:08:22.829Z,15.50
2019-02-25T11:11:00.377Z,17.90
2019-02-25T11:13:33.653Z,18.60
2019-02-25T11:16:04.050Z,20.30
2019-02-25T11:18:34.055Z,21.20
2019-02-25T11:21:05.920Z,20.00
2019-02-25T11:23:35.699Z,20.50
2019-02-25T11:26:05.926Z,18.40
2019-02-25T11:28:38.163Z,20.10
2019-02-25T11:31:07.698Z,22.00
2019-02-25T11:33:37.762Z,19.20
2019-02-25T11:36:07.692Z,18.20
2019-02-25T11:38:37.811Z,18.10
2019-02-25T11:41:09.481Z,18.10
2019-02-25T11:43:39.596Z,17.70
2019-02-25T11:46:09.572Z,17.60
2019-02-25T11:48:40.401Z,17.30
2019-02-25T11:51:10.440Z,16.20
2019-02-25T11:53:40.380Z,15.90
2019-02-25T11:56:10.527Z,14.40
2019-02-25T11:58:40.478Z,14.70
2019-02-25T12:01:10.621Z,14.50
2019-02-25T12:03:40.659Z,15.80
2019-02-25T12:06:10.676Z,15.30
2019-02-25T12:08:40.608Z,17.50
2019-02-25T12:11:10.787Z,17.70
2019-02-25T12:13:40.814Z,17.00
2019-02-25T12:16:10.801Z,17.90
2019-02-25T12:18:40.819Z,20.00
2019-02-25T12:21:10.760Z,19.90
2019-02-25T12:23:40.687Z,19.80
2019-02-25T12:26:10.679Z,19.80
2019-02-25T12:28:40.756Z,16.70
2019-02-25T12:31:10.730Z,15.80
2019-02-25T12:33:40.747Z,15.50
2019-02-25T12:36:10.671Z,14.90
2019-02-25T12:38:40.658Z,14.60
2019-02-25T12:41:10.620Z,14.40
2019-02-25T12:43:40.569Z,13.70
2019-02-25T12:46:10.515Z,13.40
2019-02-25T12:48:40.443Z,13.90
2019-02-25T12:51:12.274Z,13.20
2019-02-25T12:53:42.214Z,13.40
2019-02-25T12:56:12.256Z,13.30
2019-02-25T12:58:42.269Z,12.70
2019-02-25T13:01:12.263Z,13.10
2019-02-25T13:03:42.244Z,13.50
2019-02-25T13:06:12.183Z,14.50
2019-02-25T13:08:42.134Z,14.50
2019-02-25T13:11:12.219Z,15.80
2019-02-25T13:13:42.252Z,17.40
2019-02-25T13:16:12.349Z,15.80
2019-02-25T13:18:42.260Z,14.90
2019-02-25T13:21:12.511Z,14.00
2019-02-25T13:23:42.557Z,12.90
2019-02-25T13:26:12.559Z,12.30
2019-02-25T13:28:42.576Z,12.70
2019-02-25T13:31:12.636Z,12.80
2019-02-25T13:33:44.149Z,13.50
2019-02-25T13:36:14.088Z,14.70
2019-02-25T13:38:44.181Z,13.70
2019-02-25T13:41:14.194Z,13.40
2019-02-25T13:43:44.234Z,14.70
2019-02-25T13:46:14.277Z,14.70
2019-02-25T13:48:44.560Z,14.20
2019-02-25T13:51:15.558Z,14.40
2019-02-25T13:53:45.800Z,14.10
2019-02-25T13:56:15.878Z,15.00
2019-02-25T13:58:46.064Z,14.80
2019-02-25T14:01:16.262Z,16.70
2019-02-25T14:03:46.320Z,16.20
2019-02-25T14:06:16.359Z,15.90
2019-02-25T14:08:46.551Z,16.20
2019-02-25T14:11:16.558Z,17.50
2019-02-25T14:13:46.642Z,17.80
2019-02-25T14:16:16.897Z,16.60
2019-02-25T14:18:47.243Z,14.50
2019-02-25T14:21:17.493Z,13.80
2019-02-25T14:23:47.596Z,13.50
2019-02-25T14:26:18.922Z,14.40
2019-02-25T14:28:50.081Z,14.30
2019-02-25T14:31:20.180Z,15.00
2019-02-25T14:33:52.329Z,12.90
2019-02-25T14:36:23.640Z,12.80
2019-02-25T14:38:54.221Z,12.90
2019-02-25T14:41:25.366Z,12.80
2019-02-25T14:43:56.211Z,13.30
2019-02-25T14:46:27.083Z,13.10
2019-02-25T14:48:57.129Z,12.90
2019-02-25T14:51:28.173Z,13.00
2019-02-25T14:53:58.364Z,12.50
2019-02-25T14:56:28.652Z,12.40
2019-02-25T14:59:00.615Z,12.60
2019-02-25T15:01:30.772Z,12.00
2019-02-25T15:04:02.198Z,11.80
2019-02-25T15:06:34.754Z,12.00
2019-02-25T15:09:09.759Z,11.60
2019-02-25T15:11:38.753Z,11.40
2019-02-25T15:14:10.666Z,11.50
2019-02-25T15:16:40.745Z,11.10
2019-02-25T15:19:10.754Z,11.30
2019-02-25T15:21:43.026Z,11.20
2019-02-25T15:24:14.276Z,11.20
2019-02-25T15:26:44.142Z,11.00
2019-02-25T15:29:14.164Z,11.00
2019-02-25T15:31:44.395Z,10.90
2019-02-25T15:34:17.192Z,11.10
2019-02-25T15:36:47.929Z,11.00
2019-02-25T15:39:18.219Z,10.90
2019-02-25T15:41:49.169Z,10.70
2019-02-25T15:44:20.198Z,10.60
2019-02-25T15:46:50.552Z,10.60
2019-02-25T15:49:21.742Z,10.50
2019-02-25T15:51:53.218Z,10.50
2019-02-25T15:54:23.340Z,10.20
2019-02-25T15:56:53.379Z,10.30
2019-02-25T15:59:31.935Z,10.20
2019-02-25T16:01:55.700Z,10.00
2019-02-25T16:04:27.854Z,9.90
2019-02-25T16:06:59.655Z,9.80
2019-02-25T16:09:31.538Z,9.60
2019-02-25T16:12:05.433Z,9.60
2019-02-25T16:14:38.797Z,9.50
2019-02-25T16:17:09.587Z,9.40
2019-02-25T16:19:47.389Z,9.40
2019-02-25T16:22:11.861Z,9.20
2019-02-25T16:24:43.562Z,9.20
2019-02-25T16:27:14.277Z,9.20
2019-02-25T16:29:44.668Z,9.00
2019-02-25T16:32:15.344Z,9.00
2019-02-25T16:34:46.480Z,8.90
2019-02-25T16:37:17.698Z,8.80
2019-02-25T16:39:48.192Z,8.80
2019-02-25T16:42:18.402Z,8.90
2019-02-25T16:44:48.429Z,8.80
2019-02-25T16:47:31.885Z,8.80
2019-02-25T16:49:51.934Z,8.70
2019-02-25T16:52:24.482Z,8.70
2019-02-25T16:54:54.644Z,8.70
2019-02-25T16:57:25.131Z,8.70
2019-02-25T16:59:57.305Z,8.60
2019-02-25T17:02:27.516Z,8.50
2019-02-25T17:04:58.854Z,8.40
2019-02-25T17:07:28.878Z,8.40
2019-02-25T17:09:59.439Z,8.30
2019-02-25T17:12:31.628Z,8.30
2019-02-25T17:15:02.871Z,8.30
2019-02-25T17:17:34.603Z,8.30
2019-02-25T17:20:10.515Z,8.30
2019-02-25T17:22:40.286Z,8.20
2019-02-25T17:25:12.278Z,8.20
2019-02-25T17:27:42.408Z,8.20
2019-02-25T17:30:19.606Z,8.20
2019-02-25T17:32:49.751Z,8.20
2019-02-25T17:35:23.571Z,8.10
2019-02-25T17:37:53.825Z,8.20
2019-02-25T17:40:24.781Z,8.10
2019-02-25T17:42:56.306Z,8.00
2019-02-25T17:45:29.943Z,8.00
2019-02-25T17:48:03.195Z,7.90
2019-02-25T17:50:34.579Z,7.90
2019-02-25T17:53:05.121Z,7.80
2019-02-25T17:55:36.339Z,7.80
2019-02-25T17:58:06.632Z,7.80
2019-02-25T18:00:42.347Z,7.70
2019-02-25T18:03:12.661Z,7.60
2019-02-25T18:05:43.404Z,7.50
2019-02-25T18:08:15.375Z,7.60
2019-02-25T18:10:46.025Z,7.50
2019-02-25T18:13:17.237Z,7.50
2019-02-25T18:15:49.293Z,7.40
2019-02-25T18:18:20.252Z,7.30
2019-02-25T18:20:52.850Z,7.30
2019-02-25T18:23:22.864Z,7.30
2019-02-25T18:25:53.639Z,7.20
2019-02-25T18:28:24.779Z,7.20
2019-02-25T18:30:55.438Z,7.20
2019-02-25T18:33:27.400Z,7.10
2019-02-25T18:35:58.199Z,7.10
2019-02-25T18:38:29.565Z,7.10
2019-02-25T18:41:02.078Z,7.00
2019-02-25T18:43:32.773Z,7.00
2019-02-25T18:46:04.911Z,7.10
2019-02-25T18:48:34.615Z,7.00
2019-02-25T18:51:06.479Z,7.00
2019-02-25T18:53:37.559Z,7.00
2019-02-25T18:56:11.334Z,7.10
2019-02-25T18:58:41.253Z,7.10
2019-02-25T19:01:13.036Z,7.10
2019-02-25T19:03:43.147Z,7.20
2019-02-25T19:06:14.587Z,7.30
2019-02-25T19:08:45.334Z,7.30
2019-02-25T19:11:16.909Z,7.40
2019-02-25T19:13:49.862Z,7.30
2019-02-25T19:16:20.584Z,7.40
2019-02-25T19:18:51.809Z,7.30
2019-02-25T19:21:23.277Z,7.30
2019-02-25T19:23:53.556Z,7.40
2019-02-25T19:26:23.585Z,7.40
2019-02-25T19:28:54.710Z,7.40
2019-02-25T19:31:26.063Z,7.40
2019-02-25T19:34:00.267Z,7.50
2019-02-25T19:36:29.716Z,7.50
2019-02-25T19:39:00.185Z,7.50
2019-02-25T19:41:30.524Z,7.50
2019-02-25T19:44:03.304Z,7.50
2019-02-25T19:46:32.229Z,7.50
2019-02-25T19:49:02.290Z,7.50
2019-02-25T19:51:32.427Z,7.50
2019-02-25T19:54:06.723Z,7.60
2019-02-25T19:56:34.999Z,7.60
2019-02-25T19:59:05.663Z,7.60
2019-02-25T20:01:36.715Z,7.50
2019-02-25T20:04:08.993Z,7.50
2019-02-25T20:06:38.439Z,7.50
2019-02-25T20:09:09.808Z,7.50
2019-02-25T20:11:42.815Z,7.50
2019-02-25T20:14:16.504Z,7.50
2019-02-25T20:16:44.523Z,7.50
2019-02-25T20:19:16.603Z,7.50
2019-02-25T20:21:48.077Z,7.50
2019-02-25T20:24:19.147Z,7.70
2019-02-25T20:26:52.624Z,7.60
2019-02-25T20:29:21.462Z,7.60
2019-02-25T20:31:51.845Z,7.60
2019-02-25T20:34:25.151Z,7.50
2019-02-25T20:36:55.465Z,7.60
2019-02-25T20:39:26.498Z,7.60
2019-02-25T20:41:58.611Z,7.50
2019-02-25T20:44:30.160Z,7.50
2019-02-25T20:47:01.753Z,7.50
2019-02-25T20:49:32.350Z,7.40
2019-02-25T20:52:02.329Z,7.40
2019-02-25T20:54:32.387Z,7.50
2019-02-25T20:57:02.455Z,7.50
2019-02-25T20:59:34.750Z,7.40
2019-02-25T21:02:04.784Z,7.40
2019-02-25T21:04:36.757Z,7.40
2019-02-25T21:07:08.871Z,7.40
2019-02-25T21:09:40.553Z,7.40
2019-02-25T21:12:13.209Z,7.40
2019-02-25T21:14:45.029Z,7.40
2019-02-25T21:17:15.188Z,7.30
2019-02-25T21:19:45.189Z,7.20
2019-02-25T21:22:15.115Z,7.30
2019-02-25T21:24:45.636Z,7.30
2019-02-25T21:27:15.661Z,7.30
2019-02-25T21:29:45.729Z,7.30
2019-02-25T21:32:17.400Z,7.40
2019-02-25T21:34:52.468Z,7.30
2019-02-25T21:37:21.367Z,7.40
2019-02-25T21:39:52.864Z,7.30
2019-02-25T21:42:24.577Z,7.40
2019-02-25T21:44:55.153Z,7.30
2019-02-25T21:47:26.880Z,7.30
2019-02-25T21:49:59.153Z,7.20
2019-02-25T21:52:32.578Z,7.10
2019-02-25T21:55:02.551Z,7.10
2019-02-25T21:57:35.550Z,6.90
2019-02-25T22:00:14.878Z,6.90
2019-02-25T22:02:45.854Z,6.90
2019-02-25T22:05:19.012Z,6.80
2019-02-25T22:07:52.387Z,6.70
2019-02-25T22:10:20.943Z,6.70
2019-02-25T22:12:50.979Z,6.60
2019-02-25T22:15:22.410Z,6.70
2019-02-25T22:17:53.549Z,6.60
2019-02-25T22:20:25.177Z,6.70
2019-02-25T22:22:57.460Z,6.60
2019-02-25T22:25:26.999Z,6.60
2019-02-25T22:27:58.900Z,6.60
2019-02-25T22:30:28.690Z,6.70
2019-02-25T22:33:02.466Z,6.80
2019-02-25T22:35:35.519Z,6.80
2019-02-25T22:38:04.145Z,6.80
2019-02-25T22:40:36.215Z,6.80
2019-02-25T22:43:05.824Z,6.90
2019-02-25T22:45:37.559Z,6.90
2019-02-25T22:48:07.453Z,6.90
2019-02-25T22:50:37.811Z,6.90
2019-02-25T22:53:08.795Z,6.90
2019-02-25T22:55:42.090Z,6.90
2019-02-25T22:58:12.730Z,7.00
2019-02-25T23:00:52.210Z,7.00
2019-02-25T23:03:25.663Z,6.90
2019-02-25T23:05:55.264Z,7.00
2019-02-25T23:08:26.114Z,7.10
2019-02-25T23:10:56.493Z,7.10
2019-02-25T23:13:28.118Z,7.00
2019-02-25T23:15:58.259Z,7.10
2019-02-25T23:18:29.956Z,7.00
2019-02-25T23:21:02.703Z,7.10
2019-02-25T23:23:33.487Z,7.10
2019-02-25T23:26:03.951Z,7.10
2019-02-25T23:28:33.908Z,7.10
2019-02-25T23:31:03.922Z,7.00
2019-02-25T23:33:33.896Z,7.10
2019-02-25T23:36:03.872Z,7.00
2019-02-25T23:38:33.939Z,7.10
2019-02-25T23:41:05.411Z,7.10
2019-02-25T23:43:37.871Z,7.00
2019-02-25T23:46:08.814Z,7.00
2019-02-25T23:48:41.317Z,6.90
2019-02-25T23:51:12.106Z,6.90
2019-02-25T23:53:42.130Z,6.80
2019-02-25T23:56:14.104Z,6.80
2019-02-25T23:58:47.154Z,6.70
